Time;durP1;ratioP1;P1;durP2;ratioP2;P2;SDS_P1;SDS_P2;PMS_P1;PMS_P2;Temp;Humidity;BMP_temperature;BMP_pressure;BME280_temperature;BME280_humidity;BME280_pressure;Samples;Min_cycle;Max_cycle;Signal;HPM_P1;HPM_P2
2022/07/11 00:01:11;;;;;;;6.43;3.97;;;15.90;99.90;;;;;;4837688;29;20320;-75
2022/07/11 00:03:55;;;;;;;5.03;3.07;;;15.90;99.90;;;;;;4855097;29;20738;-76
2022/07/11 00:06:39;;;;;;;8.93;3.67;;;15.80;99.90;;;;;;4842737;29;20289;-76
2022/07/11 00:09:24;;;;;;;6.93;3.30;;;15.80;99.90;;;;;;4840128;29;20222;-76
2022/07/11 00:12:11;;;;;;;6.17;3.90;;;15.80;99.90;;;;;;4843790;29;20559;-76
2022/07/11 00:14:56;;;;;;;5.33;3.67;;;15.80;99.90;;;;;;4841503;29;20221;-76
2022/07/11 00:17:40;;;;;;;5.33;3.63;;;15.80;99.90;;;;;;4840127;29;20716;-76
2022/07/11 00:20:24;;;;;;;5.40;3.97;;;15.80;99.90;;;;;;4839014;29;20237;-76
2022/07/11 00:23:08;;;;;;;7.80;3.30;;;15.80;99.90;;;;;;4840978;29;20302;-76
2022/07/11 00:25:52;;;;;;;6.90;3.53;;;15.80;99.90;;;;;;4853042;29;20291;-76
2022/07/11 00:28:37;;;;;;;5.53;3.63;;;15.80;99.90;;;;;;4836248;29;20193;-76
2022/07/11 00:31:21;;;;;;;5.93;4.13;;;15.80;99.90;;;;;;4838531;29;20182;-76
2022/07/11 00:34:05;;;;;;;6.60;3.97;;;15.80;99.90;;;;;;4842516;29;20194;-76
2022/07/11 00:36:49;;;;;;;7.43;3.47;;;15.80;99.90;;;;;;4853133;29;20201;-76
2022/07/11 00:39:33;;;;;;;7.43;3.80;;;15.80;99.90;;;;;;4836791;29;20328;-78
2022/07/11 00:42:17;;;;;;;10.57;4.37;;;15.80;99.90;;;;;;4839682;29;20193;-77
2022/07/11 00:45:02;;;;;;;7.17;3.90;;;15.80;99.90;;;;;;4847358;29;20298;-77
2022/07/11 00:47:46;;;;;;;8.17;4.07;;;15.80;99.90;;;;;;4843758;29;20230;-80
2022/07/11 00:50:31;;;;;;;5.73;3.50;;;15.80;99.90;;;;;;4846950;29;20272;-77
2022/07/11 00:53:15;;;;;;;7.63;4.20;;;15.70;99.90;;;;;;4841510;29;20253;-76
2022/07/11 00:56:01;;;;;;;8.63;4.00;;;15.80;99.90;;;;;;4853496;29;20239;-77
2022/07/11 00:58:45;;;;;;;6.87;4.20;;;15.70;99.90;;;;;;4852996;29;20209;-75
2022/07/11 01:01:32;;;;;;;7.90;4.43;;;15.80;99.90;;;;;;4842405;29;20202;-75
2022/07/11 01:04:16;;;;;;;5.50;4.30;;;15.80;99.90;;;;;;4852039;29;20277;-75
2022/07/11 01:07:00;;;;;;;7.77;4.00;;;15.70;99.90;;;;;;4842046;29;20285;-74
2022/07/11 01:09:44;;;;;;;7.77;4.33;;;15.70;99.90;;;;;;4841344;29;20249;-78
2022/07/11 01:12:28;;;;;;;7.13;4.63;;;15.70;99.90;;;;;;4852730;29;20197;-77
2022/07/11 01:15:14;;;;;;;8.07;4.47;;;15.70;99.90;;;;;;4843321;29;20354;-76
2022/07/11 01:17:58;;;;;;;6.13;4.70;;;15.80;99.90;;;;;;4840201;29;20194;-76
2022/07/11 01:20:43;;;;;;;9.83;4.47;;;15.70;99.90;;;;;;4844668;29;20200;-77
2022/07/11 01:23:27;;;;;;;7.80;5.33;;;15.70;99.90;;;;;;4853965;29;20330;-76
2022/07/11 01:26:12;;;;;;;6.27;4.97;;;15.80;99.90;;;;;;4854111;29;20596;-77
2022/07/11 01:29:06;;;;;;;6.47;4.87;;;15.80;99.90;;;;;;4858289;29;20200;-77
2022/07/11 01:31:50;;;;;;;7.63;5.13;;;15.70;99.90;;;;;;4844152;29;20232;-77
2022/07/11 01:34:34;;;;;;;8.27;4.80;;;15.70;99.90;;;;;;4842920;29;20226;-77
2022/07/11 01:37:19;;;;;;;9.40;4.40;;;15.80;99.90;;;;;;4858736;29;20277;-77
2022/07/11 01:40:03;;;;;;;6.17;4.80;;;15.80;99.90;;;;;;4839803;29;20206;-77
2022/07/11 01:42:48;;;;;;;6.43;5.13;;;15.80;99.90;;;;;;4847063;29;20209;-77
2022/07/11 01:45:32;;;;;;;7.50;4.50;;;15.80;99.90;;;;;;4841892;29;20217;-77
2022/07/11 01:48:16;;;;;;;6.40;5.50;;;15.80;99.90;;;;;;4845305;29;20220;-77
2022/07/11 01:51:00;;;;;;;10.67;5.30;;;15.80;99.90;;;;;;4856609;29;20202;-77
2022/07/11 01:53:44;;;;;;;5.13;4.47;;;15.80;99.90;;;;;;4840795;29;21261;-76
2022/07/11 01:56:29;;;;;;;8.53;5.80;;;15.80;99.90;;;;;;4856415;29;20197;-77
2022/07/11 01:59:13;;;;;;;8.63;5.37;;;15.80;99.90;;;;;;4852916;29;20222;-76
2022/07/11 02:01:58;;;;;;;7.70;6.20;;;15.80;99.90;;;;;;4839701;29;20191;-77
2022/07/11 02:04:42;;;;;;;7.17;5.57;;;15.80;99.90;;;;;;4844536;29;20237;-76
2022/07/11 02:10:30;;;;;;;10.50;6.87;;;15.70;99.90;;;;;;4851327;29;20249;-77
2022/07/11 02:13:16;;;;;;;14.50;9.20;;;15.70;99.90;;;;;;4843324;29;20190;-76
2022/07/11 02:16:02;;;;;;;14.20;9.97;;;15.70;99.90;;;;;;4835755;29;20652;-77
2022/07/11 02:18:46;;;;;;;16.17;10.13;;;15.70;99.90;;;;;;4841114;29;20701;-77
2022/07/11 02:21:31;;;;;;;13.73;9.33;;;15.70;99.90;;;;;;4849180;29;20221;-76
2022/07/11 02:24:15;;;;;;;9.87;7.80;;;15.70;99.90;;;;;;4837730;29;20253;-77
2022/07/11 02:26:59;;;;;;;9.43;7.30;;;15.70;99.90;;;;;;4851703;29;20213;-77
2022/07/11 02:29:43;;;;;;;13.03;6.03;;;15.70;99.90;;;;;;4846470;29;21317;-77
2022/07/11 02:32:27;;;;;;;14.03;5.83;;;15.60;99.90;;;;;;4840450;29;20189;-77
2022/07/11 02:35:11;;;;;;;10.30;5.40;;;15.60;99.90;;;;;;4857561;29;20225;-77
2022/07/11 02:37:56;;;;;;;9.33;5.47;;;15.60;99.90;;;;;;4842864;29;20200;-77
2022/07/11 02:40:40;;;;;;;12.13;5.50;;;15.60;99.90;;;;;;4840504;29;20265;-77
2022/07/11 02:43:24;;;;;;;9.37;5.20;;;15.60;99.90;;;;;;4847807;29;20325;-77
2022/07/11 02:46:08;;;;;;;10.80;6.20;;;15.50;99.90;;;;;;4842051;29;20300;-76
2022/07/11 02:48:53;;;;;;;8.83;6.20;;;15.50;99.90;;;;;;4841393;29;20249;-76
2022/07/11 02:51:37;;;;;;;9.97;7.03;;;15.50;99.90;;;;;;4845181;29;20565;-77
2022/07/11 02:54:21;;;;;;;10.17;7.03;;;15.50;99.90;;;;;;4848827;29;20579;-76
2022/07/11 02:57:06;;;;;;;10.93;7.27;;;15.50;99.90;;;;;;4852882;29;20210;-77
2022/07/11 02:59:50;;;;;;;10.13;6.73;;;15.50;99.90;;;;;;4850775;29;20198;-77
2022/07/11 03:02:34;;;;;;;8.27;6.23;;;15.40;99.90;;;;;;4850750;29;20253;-77
2022/07/11 03:05:19;;;;;;;7.10;5.43;;;15.50;99.90;;;;;;4867137;29;20220;-77
2022/07/11 03:08:03;;;;;;;9.93;4.83;;;15.40;99.90;;;;;;4839395;29;20208;-77
2022/07/11 03:10:48;;;;;;;8.00;4.70;;;15.40;99.90;;;;;;4842861;29;20308;-77
2022/07/11 03:13:32;;;;;;;4.67;4.20;;;15.40;99.90;;;;;;4837960;29;20581;-77
2022/07/11 03:16:16;;;;;;;7.80;3.83;;;15.30;99.90;;;;;;4853687;29;20264;-77
2022/07/11 03:19:00;;;;;;;3.93;3.63;;;15.40;99.90;;;;;;4839960;29;20277;-77
2022/07/11 03:21:45;;;;;;;5.50;3.73;;;15.40;99.90;;;;;;4855973;29;20253;-77
2022/07/11 03:24:29;;;;;;;5.60;3.30;;;15.40;99.90;;;;;;4839865;29;20746;-77
2022/07/11 03:27:13;;;;;;;5.57;3.53;;;15.30;99.90;;;;;;4854710;29;20271;-77
2022/07/11 03:29:57;;;;;;;3.87;3.30;;;15.30;99.90;;;;;;4844910;29;20247;-77
2022/07/11 03:32:41;;;;;;;4.60;3.17;;;15.30;99.90;;;;;;4840055;29;20190;-77
2022/07/11 03:35:40;;;;;;;5.70;3.30;;;15.40;99.90;;;;;;4839329;29;20217;-77
2022/07/11 03:38:25;;;;;;;3.80;3.03;;;15.30;99.90;;;;;;4839256;29;20189;-77
2022/07/11 03:41:09;;;;;;;5.07;3.03;;;15.40;99.90;;;;;;4833480;29;20197;-76
2022/07/11 03:43:53;;;;;;;5.00;3.30;;;15.40;99.90;;;;;;4853765;28;20241;-77
2022/07/11 03:46:38;;;;;;;5.00;3.17;;;15.40;99.90;;;;;;4847248;29;20220;-77
2022/07/11 03:49:22;;;;;;;6.40;3.20;;;15.40;99.90;;;;;;4840004;29;20201;-77
2022/07/11 03:52:07;;;;;;;7.13;3.37;;;15.40;99.90;;;;;;4834584;29;20221;-77
2022/07/11 03:54:51;;;;;;;5.63;3.10;;;15.40;99.90;;;;;;4842471;29;20280;-77
2022/07/11 03:57:36;;;;;;;6.83;3.10;;;15.40;99.90;;;;;;4842333;29;20273;-77
2022/07/11 04:00:21;;;;;;;7.60;3.03;;;15.40;99.90;;;;;;4846204;29;20209;-77
2022/07/11 04:03:05;;;;;;;3.67;3.00;;;15.40;99.90;;;;;;4843959;29;20253;-76
2022/07/11 04:05:50;;;;;;;4.97;2.83;;;15.40;99.90;;;;;;4841933;29;20229;-74
2022/07/11 04:08:34;;;;;;;2.90;2.60;;;15.40;99.90;;;;;;4837428;29;20206;-74
2022/07/11 04:11:18;;;;;;;3.70;2.90;;;15.40;99.90;;;;;;4847900;29;20326;-74
2022/07/11 04:14:02;;;;;;;7.60;3.20;;;15.40;99.90;;;;;;4840333;29;20189;-74
2022/07/11 04:16:47;;;;;;;5.73;3.17;;;15.40;99.90;;;;;;4852668;29;20252;-74
2022/07/11 04:19:31;;;;;;;7.93;3.20;;;15.40;99.90;;;;;;4840890;29;20189;-74
2022/07/11 04:22:15;;;;;;;4.13;3.40;;;15.40;99.90;;;;;;4841620;29;20217;-74
2022/07/11 04:24:59;;;;;;;5.57;3.13;;;15.40;99.90;;;;;;4844568;29;20289;-74
2022/07/11 04:27:43;;;;;;;4.47;3.60;;;15.40;99.90;;;;;;4842353;29;20308;-74
2022/07/11 04:30:27;;;;;;;6.40;3.60;;;15.40;99.90;;;;;;4858326;29;20269;-74
2022/07/11 04:33:12;;;;;;;4.87;3.53;;;15.40;99.90;;;;;;4836889;29;20205;-74
2022/07/11 04:35:56;;;;;;;7.20;4.10;;;15.40;99.90;;;;;;4862472;29;20320;-74
2022/07/11 04:38:43;;;;;;;6.20;3.83;;;15.40;99.90;;;;;;4846466;29;20306;-74
2022/07/11 04:41:28;;;;;;;6.87;4.00;;;15.50;99.90;;;;;;4839463;29;20668;-74
2022/07/11 04:44:12;;;;;;;5.77;4.20;;;15.50;99.90;;;;;;4841605;29;20197;-76
2022/07/11 04:46:56;;;;;;;6.87;3.90;;;15.50;99.90;;;;;;4842618;29;20272;-77
2022/07/11 04:49:40;;;;;;;6.33;3.80;;;15.50;99.90;;;;;;4846662;29;20194;-77
2022/07/11 04:52:26;;;;;;;7.57;5.00;;;15.40;99.90;;;;;;4850576;29;20217;-77
2022/07/11 04:55:10;;;;;;;8.53;4.77;;;15.40;99.90;;;;;;4865438;29;21550;-77
2022/07/11 04:57:55;;;;;;;7.70;4.37;;;15.40;99.90;;;;;;4840112;29;20201;-77
2022/07/11 05:00:39;;;;;;;9.90;4.10;;;15.40;99.90;;;;;;4837043;29;20293;-77
2022/07/11 05:03:23;;;;;;;4.80;4.33;;;15.50;99.90;;;;;;4848602;29;20237;-77
2022/07/11 05:06:07;;;;;;;8.73;4.50;;;15.40;99.90;;;;;;4843070;29;20245;-77
2022/07/11 05:08:51;;;;;;;6.10;4.57;;;15.40;99.90;;;;;;4845380;29;20188;-77
2022/07/11 05:11:36;;;;;;;5.50;4.67;;;15.40;99.90;;;;;;4841922;29;20193;-77
2022/07/11 05:14:20;;;;;;;8.17;4.37;;;15.40;99.90;;;;;;4840610;29;20220;-76
2022/07/11 05:17:04;;;;;;;6.63;4.83;;;15.40;99.90;;;;;;4841345;29;20233;-76
2022/07/11 05:19:48;;;;;;;8.30;4.63;;;15.40;99.90;;;;;;4840913;29;20232;-76
2022/07/11 05:22:33;;;;;;;5.87;4.30;;;15.50;99.90;;;;;;4846592;29;20322;-76
2022/07/11 05:25:17;;;;;;;10.33;4.93;;;15.50;99.90;;;;;;4844594;29;20280;-75
2022/07/11 05:28:01;;;;;;;9.63;4.57;;;15.40;99.90;;;;;;4847453;29;20214;-76
2022/07/11 05:30:45;;;;;;;6.37;4.50;;;15.50;99.90;;;;;;4838675;29;20193;-75
2022/07/11 05:33:29;;;;;;;6.37;4.33;;;15.50;99.90;;;;;;4857243;29;20185;-79
2022/07/11 05:36:13;;;;;;;6.23;4.50;;;15.50;99.90;;;;;;4850762;29;20261;-75
2022/07/11 05:38:57;;;;;;;7.90;4.10;;;15.50;99.90;;;;;;4844210;29;20225;-75
2022/07/11 05:41:41;;;;;;;6.63;3.83;;;15.60;99.90;;;;;;4845008;29;20253;-75
2022/07/11 05:44:26;;;;;;;5.23;3.27;;;15.60;99.90;;;;;;4842494;29;20713;-75
2022/07/11 05:47:10;;;;;;;8.17;3.90;;;15.60;99.90;;;;;;4837795;29;20297;-75
2022/07/11 05:49:54;;;;;;;4.17;3.40;;;15.60;99.90;;;;;;4850377;29;20274;-75
2022/07/11 05:52:39;;;;;;;13.97;4.23;;;15.60;99.90;;;;;;4839065;29;20234;-75
2022/07/11 05:55:23;;;;;;;38.43;7.70;;;15.70;99.90;;;;;;4854728;29;20261;-75
2022/07/11 05:58:08;;;;;;;30.93;7.67;;;15.70;99.90;;;;;;4862366;29;20205;-75
2022/07/11 06:00:52;;;;;;;20.77;5.47;;;15.70;99.90;;;;;;4842343;29;20233;-75
2022/07/11 06:03:36;;;;;;;15.80;4.30;;;15.70;99.90;;;;;;4843199;29;20249;-75
2022/07/11 06:06:20;;;;;;;4.93;3.50;;;15.70;99.90;;;;;;4845340;29;20256;-75
2022/07/11 06:09:04;;;;;;;5.27;3.13;;;15.80;99.90;;;;;;4848965;29;20280;-75
2022/07/11 06:11:49;;;;;;;5.47;3.20;;;15.80;99.90;;;;;;4865543;29;20205;-75
2022/07/11 06:14:33;;;;;;;2.97;2.77;;;15.80;99.90;;;;;;4849010;29;20225;-75
2022/07/11 06:17:17;;;;;;;12.60;3.93;;;15.90;99.90;;;;;;4842847;29;20744;-75
2022/07/11 06:20:02;;;;;;;8.17;2.53;;;15.90;99.90;;;;;;4839743;29;20206;-75
2022/07/11 06:22:46;;;;;;;4.50;2.43;;;15.90;99.90;;;;;;4861016;29;20210;-75
2022/07/11 06:25:30;;;;;;;2.57;2.00;;;15.90;99.90;;;;;;4845147;29;20240;-75
2022/07/11 06:28:15;;;;;;;2.47;1.73;;;15.90;99.90;;;;;;4844902;29;20260;-75
2022/07/11 06:31:00;;;;;;;2.20;1.50;;;16.00;99.90;;;;;;4845519;29;20212;-75
2022/07/11 06:33:45;;;;;;;3.37;1.80;;;16.00;99.90;;;;;;4845015;29;20196;-75
2022/07/11 06:36:29;;;;;;;2.60;1.23;;;16.00;99.90;;;;;;4851119;29;20649;-75
2022/07/11 06:39:14;;;;;;;1.63;1.27;;;16.00;99.90;;;;;;4843645;29;20214;-75
2022/07/11 06:41:58;;;;;;;2.20;0.97;;;16.00;99.90;;;;;;4845587;29;20189;-75
2022/07/11 06:44:42;;;;;;;2.20;1.13;;;16.00;99.90;;;;;;4857966;29;20257;-75
2022/07/11 06:47:26;;;;;;;0.93;0.80;;;16.00;99.90;;;;;;4855541;29;20233;-75
2022/07/11 06:50:10;;;;;;;1.53;1.13;;;15.90;99.90;;;;;;4844031;29;20241;-75
2022/07/11 06:52:54;;;;;;;1.20;1.13;;;16.00;99.90;;;;;;4859402;29;20216;-75
2022/07/11 06:55:39;;;;;;;3.10;1.20;;;16.00;99.90;;;;;;4841003;29;20298;-75
2022/07/11 06:58:31;;;;;;;1.80;1.47;;;16.00;99.90;;;;;;4847376;29;20194;-75
2022/07/11 07:01:16;;;;;;;1.80;1.53;;;16.00;99.90;;;;;;4858200;29;20196;-75
2022/07/11 07:04:00;;;;;;;1.70;1.60;;;16.10;99.90;;;;;;4840333;29;20189;-76
2022/07/11 07:06:44;;;;;;;1.30;1.20;;;16.10;99.90;;;;;;4841863;29;20821;-76
2022/07/11 07:09:29;;;;;;;1.23;1.10;;;16.20;99.90;;;;;;4858809;29;20193;-76
2022/07/11 07:12:13;;;;;;;0.77;0.77;;;16.30;99.90;;;;;;4858352;29;20252;-76
2022/07/11 07:15:00;;;;;;;2.20;0.90;;;16.30;99.90;;;;;;4844945;29;20232;-76
2022/07/11 07:17:44;;;;;;;1.00;1.00;;;16.30;99.90;;;;;;4846440;29;20245;-76
2022/07/11 07:20:29;;;;;;;0.97;0.97;;;16.30;99.90;;;;;;4847482;29;20225;-76
2022/07/11 07:23:13;;;;;;;0.80;0.80;;;16.40;99.90;;;;;;4855290;29;20522;-76
2022/07/11 07:25:58;;;;;;;0.60;0.60;;;16.40;99.90;;;;;;4840178;29;20252;-76
2022/07/11 07:28:42;;;;;;;0.93;0.93;;;16.40;99.90;;;;;;4842352;29;20333;-76
2022/07/11 07:31:26;;;;;;;2.03;0.80;;;16.60;99.90;;;;;;4861308;29;20200;-76
2022/07/11 07:34:10;;;;;;;1.00;0.90;;;16.50;99.90;;;;;;4843980;29;20233;-75
2022/07/11 07:36:54;;;;;;;1.10;0.93;;;16.60;99.90;;;;;;4857753;29;20256;-76
2022/07/11 07:39:39;;;;;;;1.10;1.03;;;16.70;99.90;;;;;;4844797;29;20209;-75
2022/07/11 07:42:23;;;;;;;3.03;0.73;;;16.80;99.90;;;;;;4845950;29;20269;-75
2022/07/11 07:45:07;;;;;;;1.43;1.00;;;16.80;99.90;;;;;;4842041;29;20301;-75
2022/07/11 07:47:51;;;;;;;0.73;0.73;;;16.80;99.90;;;;;;4843694;29;20217;-75
2022/07/11 07:50:36;;;;;;;0.97;0.83;;;16.80;99.90;;;;;;4845858;29;20328;-75
2022/07/11 07:53:20;;;;;;;2.67;0.77;;;16.80;99.90;;;;;;4853730;29;20205;-77
2022/07/11 07:56:05;;;;;;;3.17;0.70;;;16.90;99.90;;;;;;4856066;29;20265;-75
2022/07/11 07:58:51;;;;;;;0.60;0.60;;;16.90;99.90;;;;;;4854843;29;20193;-77
2022/07/11 08:01:35;;;;;;;3.03;0.80;;;16.90;99.90;;;;;;4854724;29;20607;-76
2022/07/11 08:04:19;;;;;;;0.60;0.60;;;16.90;99.90;;;;;;4841052;29;20616;-76
2022/07/11 08:07:04;;;;;;;3.03;0.70;;;16.90;99.90;;;;;;4856069;29;20236;-76
2022/07/11 08:09:48;;;;;;;0.67;0.47;;;16.90;99.90;;;;;;4843413;29;20313;-76
2022/07/11 08:12:32;;;;;;;1.33;0.70;;;16.90;99.90;;;;;;4842206;29;20197;-76
2022/07/11 08:15:16;;;;;;;1.70;0.77;;;16.90;99.90;;;;;;4846786;29;20260;-76
2022/07/11 08:18:00;;;;;;;1.63;0.80;;;16.90;99.90;;;;;;4856070;29;20201;-76
2022/07/11 08:20:44;;;;;;;0.80;0.80;;;16.90;99.90;;;;;;4846834;29;20217;-76
2022/07/11 08:23:28;;;;;;;2.50;0.80;;;16.90;99.90;;;;;;4857447;29;20205;-76
2022/07/11 08:26:12;;;;;;;2.27;0.87;;;16.90;99.90;;;;;;4841389;29;20268;-76
2022/07/11 08:28:56;;;;;;;0.97;0.80;;;16.90;99.90;;;;;;4842664;29;20201;-76
2022/07/11 08:31:40;;;;;;;0.70;0.70;;;16.90;99.90;;;;;;4855687;29;20773;-76
2022/07/11 08:34:25;;;;;;;0.77;0.60;;;17.00;99.90;;;;;;4845285;29;20224;-76
2022/07/11 08:37:08;;;;;;;0.50;0.50;;;17.00;99.90;;;;;;4844571;29;20234;-76
2022/07/11 08:39:52;;;;;;;0.60;0.50;;;17.00;99.90;;;;;;4854914;29;20205;-76
2022/07/11 08:42:41;;;;;;;4.03;0.90;;;17.10;99.90;;;;;;4843512;29;20208;-76
2022/07/11 08:45:30;;;;;;;1.23;0.80;;;17.10;99.90;;;;;;4841671;29;20246;-76
2022/07/11 08:48:16;;;;;;;0.80;0.80;;;17.20;99.90;;;;;;4856562;29;20214;-76
2022/07/11 08:51:01;;;;;;;1.93;0.70;;;17.20;99.90;;;;;;4853223;29;20202;-79
2022/07/11 08:53:45;;;;;;;0.67;0.67;;;17.20;99.90;;;;;;4838169;29;20254;-79
2022/07/11 08:56:30;;;;;;;1.40;1.20;;;17.20;99.90;;;;;;4846027;29;20209;-80
2022/07/11 08:59:19;;;;;;;0.70;0.70;;;17.10;99.90;;;;;;4845797;29;20229;-80
2022/07/11 09:02:05;;;;;;;1.97;1.13;;;17.10;99.90;;;;;;4854204;29;20189;-75
2022/07/11 09:04:50;;;;;;;1.17;1.00;;;17.10;99.90;;;;;;4841128;29;20228;-76
2022/07/11 09:07:46;;;;;;;2.03;0.70;;;17.10;99.90;;;;;;4838487;29;20277;-79
2022/07/11 09:10:30;;;;;;;0.50;0.50;;;17.20;99.90;;;;;;4855812;29;20225;-75
2022/07/11 09:13:17;;;;;;;0.70;0.70;;;17.20;99.90;;;;;;4845134;29;20193;-77
2022/07/11 09:16:06;;;;;;;0.63;0.37;;;17.30;99.90;;;;;;4842073;29;20715;-77
2022/07/11 09:18:51;;;;;;;0.83;0.50;;;17.30;99.90;;;;;;4842441;29;20574;-77
2022/07/11 09:27:47;;;;;;;1.60;0.50;;;17.40;99.90;;;;;;4852772;29;20324;-76
2022/07/11 09:30:39;;;;;;;1.03;0.53;;;17.40;99.90;;;;;;4843523;29;20189;-76
2022/07/11 09:33:23;;;;;;;1.40;0.30;;;17.40;99.90;;;;;;4839240;29;20190;-76
2022/07/11 09:36:07;;;;;;;2.13;0.53;;;17.40;99.90;;;;;;4841779;29;20222;-75
2022/07/11 09:38:58;;;;;;;0.83;0.60;;;17.40;99.90;;;;;;4847989;29;20253;-75
2022/07/11 09:41:44;;;;;;;1.80;0.67;;;17.40;99.90;;;;;;4846281;29;20578;-75
2022/07/11 09:44:33;;;;;;;1.40;0.60;;;17.40;99.90;;;;;;4849708;29;20217;-75
2022/07/11 09:47:18;;;;;;;3.10;0.60;;;17.40;99.90;;;;;;4845930;29;20247;-75
2022/07/11 09:50:04;;;;;;;2.27;0.70;;;17.50;99.90;;;;;;4843156;29;20193;-76
2022/07/11 09:53:17;;;;;;;0.60;0.50;;;17.50;99.90;;;;;;4851220;29;20213;-75
2022/07/11 09:56:06;;;;;;;0.40;0.40;;;17.50;99.90;;;;;;4853465;29;20233;-75
2022/07/11 09:58:59;;;;;;;2.77;0.73;;;17.50;99.90;;;;;;4840497;29;20257;-76
2022/07/11 10:01:47;;;;;;;0.70;0.50;;;17.60;99.90;;;;;;4840459;29;20311;-76
2022/07/11 10:04:31;;;;;;;1.33;0.50;;;17.60;99.90;;;;;;4843769;29;20251;-75
2022/07/11 10:07:15;;;;;;;0.53;0.53;;;17.70;99.90;;;;;;4864519;29;20208;-76
2022/07/11 10:10:01;;;;;;;0.77;0.50;;;17.80;99.90;;;;;;4855261;29;20314;-76
2022/07/11 10:12:48;;;;;;;1.23;0.70;;;17.90;99.90;;;;;;4852974;29;20319;-76
2022/07/11 10:15:36;;;;;;;0.60;0.60;;;18.00;99.90;;;;;;4843950;29;20265;-76
2022/07/11 10:18:43;;;;;;;0.60;0.40;;;18.00;99.90;;;;;;4842841;29;20240;-75
2022/07/11 10:21:39;;;;;;;0.63;0.50;;;18.00;99.90;;;;;;4855250;29;20197;-76
2022/07/11 10:24:46;;;;;;;8.40;1.37;;;18.10;99.90;;;;;;4861391;29;20257;-76
2022/07/11 10:27:42;;;;;;;2.87;0.60;;;18.20;99.90;;;;;;4862044;29;20213;-76
2022/07/11 10:30:50;;;;;;;19.20;2.47;;;18.20;99.90;;;;;;4861952;29;20759;-76
2022/07/11 10:34:05;;;;;;;0.40;0.40;;;18.20;99.90;;;;;;4858470;29;20181;-76
2022/07/11 10:36:49;;;;;;;1.17;0.47;;;18.20;99.90;;;;;;4850950;29;20230;-76
2022/07/11 10:39:35;;;;;;;0.37;0.37;;;18.20;99.90;;;;;;4845455;29;20198;-76
2022/07/11 10:42:20;;;;;;;0.40;0.40;;;18.30;99.90;;;;;;4836865;29;20214;-76
2022/07/11 10:45:10;;;;;;;0.57;0.40;;;18.20;99.90;;;;;;4844904;29;20225;-76
2022/07/11 10:48:10;;;;;;;1.70;0.57;;;18.20;99.90;;;;;;4851406;29;20302;-76
2022/07/11 10:51:08;;;;;;;0.75;0.50;;;18.10;99.90;;;;;;4841933;29;20256;-76
2022/07/11 10:53:53;;;;;;;1.97;0.60;;;18.10;99.90;;;;;;4837079;29;20202;-75
2022/07/11 10:56:52;;;;;;;0.57;0.50;;;18.00;99.90;;;;;;4840515;29;20205;-76
2022/07/11 10:59:59;;;;;;;1.75;0.50;;;18.00;99.90;;;;;;4849726;29;20209;-76
2022/07/11 11:03:04;;;;;;;0.70;0.50;;;18.00;99.90;;;;;;4842877;29;20221;-77
2022/07/11 11:05:53;;;;;;;1.25;0.68;;;18.00;99.90;;;;;;4846915;29;20228;-76
2022/07/11 11:08:38;;;;;;;0.60;0.60;;;18.00;99.90;;;;;;4845713;29;20209;-76
2022/07/11 11:11:22;;;;;;;1.83;0.65;;;18.00;99.90;;;;;;4861121;29;20209;-76
2022/07/11 11:14:19;;;;;;;0.73;0.53;;;18.00;99.90;;;;;;4859152;29;20217;-75
2022/07/11 11:17:36;;;;;;;11.57;1.37;;;18.10;99.90;;;;;;4838189;29;20260;-75
2022/07/11 11:20:31;;;;;;;16.67;2.73;;;18.10;99.90;;;;;;4843256;29;20201;-75
2022/07/11 11:23:22;;;;;;;41.33;4.20;;;18.10;99.90;;;;;;4840837;29;20202;-75
2022/07/11 11:26:13;;;;;;;2.08;0.95;;;18.20;99.90;;;;;;4843804;29;20273;-76
2022/07/11 11:29:00;;;;;;;21.47;2.40;;;18.20;99.90;;;;;;4838421;29;20205;-75
2022/07/11 11:31:50;;;;;;;22.33;2.60;;;18.30;99.90;;;;;;4845586;29;20213;-79
2022/07/11 11:34:34;;;;;;;1.05;0.73;;;18.30;99.90;;;;;;4842923;29;20232;-78
2022/07/11 11:37:18;;;;;;;4.25;1.08;;;18.30;99.90;;;;;;4844713;29;20190;-78
2022/07/11 11:40:03;;;;;;;8.47;1.53;;;18.30;99.90;;;;;;4849047;29;20636;-78
2022/07/11 11:42:47;;;;;;;2.67;0.75;;;18.40;99.90;;;;;;4844673;29;20248;-78
2022/07/11 11:45:34;;;;;;;0.60;0.60;;;18.40;99.90;;;;;;4844045;29;20850;-77
2022/07/11 11:48:33;;;;;;;1.25;0.60;;;18.30;99.90;;;;;;4845393;29;20568;-76
2022/07/11 11:51:18;;;;;;;1.88;0.70;;;18.30;99.90;;;;;;4871698;29;20192;-80
2022/07/11 11:54:03;;;;;;;0.50;0.50;;;18.20;99.90;;;;;;4835812;29;20190;-76
2022/07/11 11:56:47;;;;;;;1.13;0.40;;;18.10;99.90;;;;;;4850112;29;20229;-75
2022/07/11 11:59:31;;;;;;;4.03;0.75;;;18.20;99.90;;;;;;4843210;29;20197;-75
2022/07/11 12:02:22;;;;;;;0.83;0.80;;;18.20;99.90;;;;;;4843246;29;20201;-74
2022/07/11 12:05:07;;;;;;;1.47;0.53;;;18.30;99.90;;;;;;4846476;29;20245;-75
2022/07/11 12:07:52;;;;;;;2.10;0.53;;;18.30;99.90;;;;;;4836272;29;20333;-75
2022/07/11 12:10:36;;;;;;;1.55;0.63;;;18.50;99.90;;;;;;4867447;29;20727;-75
2022/07/11 12:13:21;;;;;;;0.75;0.70;;;18.50;99.90;;;;;;4843669;29;20778;-75
2022/07/11 12:19:19;;;;;;;4.10;1.02;;;18.80;99.90;;;;;;4851855;29;20226;-75
2022/07/11 12:22:04;;;;;;;0.98;0.80;;;18.90;99.90;;;;;;4839336;29;20205;-77
2022/07/11 12:24:51;;;;;;;1.67;1.00;;;19.00;99.90;;;;;;4855968;29;20228;-78
2022/07/11 12:27:35;;;;;;;3.38;0.90;;;19.10;99.90;;;;;;4854586;29;20930;-77
2022/07/11 12:30:24;;;;;;;6.78;1.20;;;19.20;99.90;;;;;;4850325;29;20253;-77
2022/07/11 12:33:11;;;;;;;3.75;1.45;;;19.20;99.90;;;;;;4843486;29;20213;-77
2022/07/11 12:36:00;;;;;;;2.15;0.88;;;19.20;99.90;;;;;;4839340;29;20353;-77
2022/07/11 12:38:51;;;;;;;13.75;2.35;;;19.20;99.90;;;;;;4842593;29;20313;-77
2022/07/11 12:41:36;;;;;;;13.57;2.83;;;19.20;99.90;;;;;;4854979;29;20214;-77
2022/07/11 12:47:30;;;;;;;1.08;0.90;;;19.20;99.90;;;;;;4853036;29;20222;-77
2022/07/11 12:50:26;;;;;;;1.33;0.80;;;19.20;99.90;;;;;;4853047;29;20226;-77
2022/07/11 12:53:10;;;;;;;1.42;0.60;;;19.20;99.90;;;;;;4850912;29;20312;-77
2022/07/11 12:55:57;;;;;;;1.40;0.60;;;19.20;99.90;;;;;;4847997;29;20242;-77
2022/07/11 12:58:41;;;;;;;0.77;0.60;;;19.20;99.90;;;;;;4846771;29;20253;-80
2022/07/11 13:01:25;;;;;;;1.00;0.60;;;19.20;99.90;;;;;;4842483;29;20182;-79
2022/07/11 13:04:28;;;;;;;0.82;0.50;;;19.30;99.90;;;;;;4848024;29;20253;-80
2022/07/11 13:13:34;;;;;;;0.30;0.30;;;19.30;99.90;;;;;;4854754;29;20193;-79
2022/07/11 13:16:19;;;;;;;0.40;0.40;;;19.40;99.90;;;;;;4843876;29;20268;-80
2022/07/11 13:19:04;;;;;;;0.30;0.30;;;19.50;99.90;;;;;;4848338;29;20198;-79
2022/07/11 13:21:49;;;;;;;0.63;0.45;;;19.60;99.90;;;;;;4842209;29;20208;-79
2022/07/11 13:24:33;;;;;;;0.30;0.30;;;19.60;99.90;;;;;;4841342;29;20588;-79
2022/07/11 13:27:18;;;;;;;3.28;0.60;;;19.70;99.90;;;;;;4840935;29;20225;-79
2022/07/11 13:30:10;;;;;;;0.90;0.30;;;19.70;99.90;;;;;;4848015;29;20197;-77
2022/07/11 13:32:54;;;;;;;1.58;0.50;;;19.80;99.90;;;;;;4841589;29;20271;-77
2022/07/11 13:35:41;;;;;;;0.75;0.40;;;19.80;99.90;;;;;;4840769;29;20723;-77
2022/07/11 13:38:26;;;;;;;0.95;0.57;;;19.80;99.90;;;;;;4842895;29;20205;-77
2022/07/11 13:41:10;;;;;;;1.60;0.50;;;19.80;99.90;;;;;;4854170;29;20688;-77
2022/07/11 13:43:55;;;;;;;0.70;0.70;;;19.70;99.90;;;;;;4858008;29;20205;-78
2022/07/11 13:46:44;;;;;;;0.47;0.40;;;19.60;99.90;;;;;;4840225;29;20216;-77
2022/07/11 13:49:29;;;;;;;2.10;0.40;;;19.60;99.90;;;;;;4842495;29;20249;-77
2022/07/11 13:52:15;;;;;;;0.47;0.47;;;19.60;99.90;;;;;;4846468;29;20233;-77
2022/07/11 13:55:00;;;;;;;0.70;0.50;;;19.60;99.90;;;;;;4846338;29;20254;-77
2022/07/11 13:57:45;;;;;;;1.13;0.50;;;19.60;99.90;;;;;;4854718;29;20580;-77
2022/07/11 14:00:32;;;;;;;0.70;0.70;;;19.70;99.90;;;;;;4843034;29;20201;-77
2022/07/11 14:03:18;;;;;;;1.27;0.70;;;19.80;99.90;;;;;;4850880;29;20204;-77
2022/07/11 14:06:03;;;;;;;0.80;0.50;;;19.80;99.90;;;;;;4844763;29;20361;-77
2022/07/11 14:08:47;;;;;;;1.20;0.70;;;19.80;99.90;;;;;;4849451;29;20206;-77
2022/07/11 14:11:32;;;;;;;2.45;0.82;;;19.90;99.90;;;;;;4858346;29;20197;-77
2022/07/11 14:14:17;;;;;;;1.08;0.73;;;19.90;99.90;;;;;;4849961;29;20234;-77
2022/07/11 14:17:03;;;;;;;0.80;0.70;;;19.90;99.90;;;;;;4843502;29;21934;-77
2022/07/11 14:19:47;;;;;;;0.50;0.50;;;19.80;99.90;;;;;;4843900;29;20193;-74
2022/07/11 14:22:32;;;;;;;0.70;0.63;;;19.70;99.90;;;;;;4843407;29;20202;-78
2022/07/11 14:25:16;;;;;;;0.60;0.50;;;19.70;99.90;;;;;;4853448;29;20297;-77
2022/07/11 14:28:01;;;;;;;2.15;0.65;;;19.60;99.90;;;;;;4847536;29;20272;-78
2022/07/11 14:30:46;;;;;;;0.73;0.50;;;19.70;99.90;;;;;;4856454;29;20285;-78
2022/07/11 14:33:31;;;;;;;3.33;0.50;;;19.70;99.90;;;;;;4849535;29;20189;-78
2022/07/11 14:36:16;;;;;;;0.63;0.43;;;19.70;99.90;;;;;;4846977;29;20256;-79
2022/07/11 14:39:01;;;;;;;2.47;0.77;;;19.70;99.90;;;;;;4842545;29;20206;-77
2022/07/11 14:41:46;;;;;;;1.70;0.93;;;19.80;99.90;;;;;;4844762;29;20708;-77
2022/07/11 14:44:30;;;;;;;0.45;0.45;;;19.70;99.90;;;;;;4844376;29;20284;-77